sensor_id;sensor_type;location;lat;lon;timestamp;pressure;altitude;pressure_sealevel;temperature;humidity
22753;BME280;11543;43.144;24.684;2023-05-23T00:01:32;98616.50;;;16.13;74.41
22753;BME280;11543;43.144;24.684;2023-05-23T00:03:57;98605.16;;;16.03;74.58
22753;BME280;11543;43.144;24.684;2023-05-23T00:06:23;98620.63;;;16.09;74.74
22753;BME280;11543;43.144;24.684;2023-05-23T00:08:48;98627.72;;;16.10;75.15
22753;BME280;11543;43.144;24.684;2023-05-23T00:11:14;98604.91;;;15.98;75.26
22753;BME280;11543;43.144;24.684;2023-05-23T00:13:41;98613.53;;;16.08;75.23
22753;BME280;11543;43.144;24.684;2023-05-23T00:16:07;98616.88;;;16.10;75.21
22753;BME280;11543;43.144;24.684;2023-05-23T00:18:35;98611.84;;;16.07;75.06
22753;BME280;11543;43.144;24.684;2023-05-23T00:21:01;98586.16;;;15.96;75.09
22753;BME280;11543;43.144;24.684;2023-05-23T00:23:26;98617.53;;;16.12;74.93
22753;BME280;11543;43.144;24.684;2023-05-23T00:25:54;98608.56;;;16.11;74.96
22753;BME280;11543;43.144;24.684;2023-05-23T00:28:20;98585.34;;;15.96;74.75
22753;BME280;11543;43.144;24.684;2023-05-23T00:30:47;98601.81;;;16.01;75.04
22753;BME280;11543;43.144;24.684;2023-05-23T00:33:14;98586.75;;;15.91;75.08
22753;BME280;11543;43.144;24.684;2023-05-23T00:35:41;98599.75;;;16.03;75.09
22753;BME280;11543;43.144;24.684;2023-05-23T00:38:06;98593.44;;;15.96;74.77
22753;BME280;11543;43.144;24.684;2023-05-23T00:40:33;98597.56;;;15.91;75.07
22753;BME280;11543;43.144;24.684;2023-05-23T00:42:59;98597.31;;;15.86;75.14
22753;BME280;11543;43.144;24.684;2023-05-23T00:45:25;98586.66;;;15.78;75.17
22753;BME280;11543;43.144;24.684;2023-05-23T00:47:51;98592.94;;;15.85;74.92
22753;BME280;11543;43.144;24.684;2023-05-23T00:50:17;98569.06;;;15.68;74.66
22753;BME280;11543;43.144;24.684;2023-05-23T00:52:45;98581.63;;;15.75;75.01
22753;BME280;11543;43.144;24.684;2023-05-23T00:55:12;98576.59;;;15.72;74.61
22753;BME280;11543;43.144;24.684;2023-05-23T00:57:39;98598.38;;;15.85;74.83
22753;BME280;11543;43.144;24.684;2023-05-23T01:00:12;98604.59;;;15.86;74.90
22753;BME280;11543;43.144;24.684;2023-05-23T01:02:43;98597.06;;;15.81;74.96
22753;BME280;11543;43.144;24.684;2023-05-23T01:05:10;98600.44;;;15.83;74.96
22753;BME280;11543;43.144;24.684;2023-05-23T01:07:39;98599.53;;;15.76;75.11
22753;BME280;11543;43.144;24.684;2023-05-23T01:10:05;98603.91;;;15.77;75.24
22753;BME280;11543;43.144;24.684;2023-05-23T01:12:45;98611.25;;;15.83;75.22
22753;BME280;11543;43.144;24.684;2023-05-23T01:15:19;98597.59;;;15.70;75.33
22753;BME280;11543;43.144;24.684;2023-05-23T01:18:07;98592.84;;;15.72;75.26
22753;BME280;11543;43.144;24.684;2023-05-23T01:20:38;98603.25;;;15.75;75.24
22753;BME280;11543;43.144;24.684;2023-05-23T01:28:47;98598.63;;;15.69;75.04
22753;BME280;11543;43.144;24.684;2023-05-23T01:31:15;98589.28;;;15.57;75.21
22753;BME280;11543;43.144;24.684;2023-05-23T01:33:42;98595.66;;;15.64;75.19
22753;BME280;11543;43.144;24.684;2023-05-23T01:36:12;98577.59;;;15.50;75.08
22753;BME280;11543;43.144;24.684;2023-05-23T01:38:39;98569.22;;;15.45;75.02
22753;BME280;11543;43.144;24.684;2023-05-23T01:41:04;98574.63;;;15.45;74.82
22753;BME280;11543;43.144;24.684;2023-05-23T01:43:30;98581.69;;;15.46;74.92
22753;BME280;11543;43.144;24.684;2023-05-23T01:45:56;98586.72;;;15.49;74.83
22753;BME280;11543;43.144;24.684;2023-05-23T01:48:23;98567.09;;;15.40;74.91
22753;BME280;11543;43.144;24.684;2023-05-23T01:50:51;98575.00;;;15.42;75.09
22753;BME280;11543;43.144;24.684;2023-05-23T01:53:19;98591.75;;;15.52;74.96
22753;BME280;11543;43.144;24.684;2023-05-23T01:55:45;98585.06;;;15.48;74.98
22753;BME280;11543;43.144;24.684;2023-05-23T01:58:11;98580.47;;;15.48;75.02
22753;BME280;11543;43.144;24.684;2023-05-23T02:00:37;98560.97;;;15.32;74.99
22753;BME280;11543;43.144;24.684;2023-05-23T02:03:03;98584.16;;;15.41;75.15
22753;BME280;11543;43.144;24.684;2023-05-23T02:05:28;98580.34;;;15.35;75.15
22753;BME280;11543;43.144;24.684;2023-05-23T02:07:54;98573.66;;;15.31;75.10
22753;BME280;11543;43.144;24.684;2023-05-23T02:10:20;98576.16;;;15.33;75.16
22753;BME280;11543;43.144;24.684;2023-05-23T02:12:45;98575.25;;;15.25;75.11
22753;BME280;11543;43.144;24.684;2023-05-23T02:15:11;98583.25;;;15.34;75.13
22753;BME280;11543;43.144;24.684;2023-05-23T02:17:36;98590.69;;;15.32;75.15
22753;BME280;11543;43.144;24.684;2023-05-23T02:20:04;98589.78;;;15.24;75.29
22753;BME280;11543;43.144;24.684;2023-05-23T02:22:30;98595.91;;;15.33;75.49
22753;BME280;11543;43.144;24.684;2023-05-23T02:24:56;98598.53;;;15.26;75.53
22753;BME280;11543;43.144;24.684;2023-05-23T02:27:22;98578.44;;;15.14;75.79
22753;BME280;11543;43.144;24.684;2023-05-23T02:29:47;98596.22;;;15.23;75.68
22753;BME280;11543;43.144;24.684;2023-05-23T02:32:13;98601.56;;;15.17;75.80
22753;BME280;11543;43.144;24.684;2023-05-23T02:34:38;98605.09;;;15.17;75.86
22753;BME280;11543;43.144;24.684;2023-05-23T02:37:04;98593.75;;;15.07;76.24
22753;BME280;11543;43.144;24.684;2023-05-23T02:39:30;98584.09;;;14.98;76.16
22753;BME280;11543;43.144;24.684;2023-05-23T02:41:55;98592.28;;;15.05;76.06
22753;BME280;11543;43.144;24.684;2023-05-23T02:44:21;98595.63;;;15.07;75.99
22753;BME280;11543;43.144;24.684;2023-05-23T02:46:46;98612.09;;;15.12;76.10
22753;BME280;11543;43.144;24.684;2023-05-23T02:49:12;98604.56;;;15.07;76.08
22753;BME280;11543;43.144;24.684;2023-05-23T02:51:37;98611.06;;;15.13;75.94
22753;BME280;11543;43.144;24.684;2023-05-23T02:54:03;98619.63;;;15.16;75.76
22753;BME280;11543;43.144;24.684;2023-05-23T02:56:29;98594.91;;;14.98;75.81
22753;BME280;11543;43.144;24.684;2023-05-23T02:58:55;98612.66;;;15.07;75.86
22753;BME280;11543;43.144;24.684;2023-05-23T03:01:20;98593.22;;;14.97;75.51
22753;BME280;11543;43.144;24.684;2023-05-23T03:03:46;98609.31;;;15.05;75.29
22753;BME280;11543;43.144;24.684;2023-05-23T03:06:11;98588.84;;;14.96;75.34
22753;BME280;11543;43.144;24.684;2023-05-23T03:08:40;98599.91;;;15.01;75.13
22753;BME280;11543;43.144;24.684;2023-05-23T03:11:05;98602.81;;;15.00;75.27
22753;BME280;11543;43.144;24.684;2023-05-23T03:13:31;98624.41;;;15.14;74.95
22753;BME280;11543;43.144;24.684;2023-05-23T03:15:56;98607.38;;;14.99;75.21
22753;BME280;11543;43.144;24.684;2023-05-23T03:18:22;98591.91;;;14.93;75.23
22753;BME280;11543;43.144;24.684;2023-05-23T03:20:47;98601.06;;;14.92;75.08
22753;BME280;11543;43.144;24.684;2023-05-23T03:23:13;98596.41;;;14.86;75.47
22753;BME280;11543;43.144;24.684;2023-05-23T03:25:38;98608.13;;;14.93;75.47
22753;BME280;11543;43.144;24.684;2023-05-23T03:28:04;98619.19;;;14.98;75.66
22753;BME280;11543;43.144;24.684;2023-05-23T03:30:29;98617.72;;;14.95;75.44
22753;BME280;11543;43.144;24.684;2023-05-23T03:32:55;98625.44;;;14.98;75.71
22753;BME280;11543;43.144;24.684;2023-05-23T03:35:20;98622.28;;;14.95;75.61
22753;BME280;11543;43.144;24.684;2023-05-23T03:37:46;98608.50;;;14.90;75.87
22753;BME280;11543;43.144;24.684;2023-05-23T03:40:11;98631.69;;;14.99;76.03
22753;BME280;11543;43.144;24.684;2023-05-23T03:42:38;98629.53;;;15.09;76.15
22753;BME280;11543;43.144;24.684;2023-05-23T03:45:04;98625.06;;;15.02;75.81
22753;BME280;11543;43.144;24.684;2023-05-23T03:47:30;98626.94;;;15.01;76.17
22753;BME280;11543;43.144;24.684;2023-05-23T03:49:55;98617.63;;;14.89;76.15
22753;BME280;11543;43.144;24.684;2023-05-23T03:52:21;98644.44;;;15.05;76.44
22753;BME280;11543;43.144;24.684;2023-05-23T03:54:47;98628.44;;;14.89;76.48
22753;BME280;11543;43.144;24.684;2023-05-23T03:57:12;98631.59;;;14.92;76.47
22753;BME280;11543;43.144;24.684;2023-05-23T03:59:38;98641.94;;;15.04;76.80
22753;BME280;11543;43.144;24.684;2023-05-23T04:02:04;98646.50;;;15.03;77.01
22753;BME280;11543;43.144;24.684;2023-05-23T04:04:30;98643.16;;;15.01;77.53
22753;BME280;11543;43.144;24.684;2023-05-23T04:06:56;98623.69;;;14.91;77.89
22753;BME280;11543;43.144;24.684;2023-05-23T04:09:22;98641.94;;;15.04;77.71
22753;BME280;11543;43.144;24.684;2023-05-23T04:11:48;98654.13;;;15.14;77.94
22753;BME280;11543;43.144;24.684;2023-05-23T04:14:13;98642.00;;;15.10;77.80
22753;BME280;11543;43.144;24.684;2023-05-23T04:16:39;98636.22;;;15.13;77.95
22753;BME280;11543;43.144;24.684;2023-05-23T04:19:06;98652.59;;;15.26;78.01
22753;BME280;11543;43.144;24.684;2023-05-23T04:21:32;98653.50;;;15.34;78.24
22753;BME280;11543;43.144;24.684;2023-05-23T04:23:59;98656.94;;;15.42;78.33
22753;BME280;11543;43.144;24.684;2023-05-23T04:26:25;98643.81;;;15.39;78.98
22753;BME280;11543;43.144;24.684;2023-05-23T04:28:51;98650.78;;;15.48;79.02
22753;BME280;11543;43.144;24.684;2023-05-23T04:31:19;98653.84;;;15.60;79.37
22753;BME280;11543;43.144;24.684;2023-05-23T04:33:46;98648.34;;;15.68;79.30
22753;BME280;11543;43.144;24.684;2023-05-23T04:36:12;98657.81;;;15.79;79.20
22753;BME280;11543;43.144;24.684;2023-05-23T04:38:37;98645.78;;;15.81;79.15
22753;BME280;11543;43.144;24.684;2023-05-23T04:41:05;98652.91;;;15.89;79.12
22753;BME280;11543;43.144;24.684;2023-05-23T04:43:33;98650.53;;;16.01;79.32
22753;BME280;11543;43.144;24.684;2023-05-23T04:45:59;98661.47;;;16.14;79.34
22753;BME280;11543;43.144;24.684;2023-05-23T04:48:26;98649.03;;;16.19;79.45
22753;BME280;11543;43.144;24.684;2023-05-23T04:50:52;98659.75;;;16.34;79.55
22753;BME280;11543;43.144;24.684;2023-05-23T04:53:21;98657.94;;;16.41;79.60
22753;BME280;11543;43.144;24.684;2023-05-23T04:55:47;98633.56;;;16.41;79.68
22753;BME280;11543;43.144;24.684;2023-05-23T04:58:15;98634.91;;;16.52;79.92
22753;BME280;11543;43.144;24.684;2023-05-23T05:00:40;98651.97;;;16.74;80.06
22753;BME280;11543;43.144;24.684;2023-05-23T05:03:09;98643.66;;;16.75;80.07
22753;BME280;11543;43.144;24.684;2023-05-23T05:05:37;98652.69;;;16.89;79.83
22753;BME280;11543;43.144;24.684;2023-05-23T05:08:03;98628.72;;;16.93;79.70
22753;BME280;11543;43.144;24.684;2023-05-23T05:10:28;98625.41;;;16.97;79.50
22753;BME280;11543;43.144;24.684;2023-05-23T05:12:54;98636.31;;;17.10;79.66
22753;BME280;11543;43.144;24.684;2023-05-23T05:15:21;98636.78;;;17.20;79.35
22753;BME280;11543;43.144;24.684;2023-05-23T05:17:47;98657.72;;;17.40;79.26
22753;BME280;11543;43.144;24.684;2023-05-23T05:20:15;98654.84;;;17.48;79.40
22753;BME280;11543;43.144;24.684;2023-05-23T05:22:41;98655.28;;;17.58;79.40
22753;BME280;11543;43.144;24.684;2023-05-23T05:25:09;98648.66;;;17.67;79.29
22753;BME280;11543;43.144;24.684;2023-05-23T05:39:11;98634.03;;;19.00;75.35
22753;BME280;11543;43.144;24.684;2023-05-23T05:41:40;98639.03;;;19.03;75.70
22753;BME280;11543;43.144;24.684;2023-05-23T05:44:07;98636.31;;;19.03;76.06
22753;BME280;11543;43.144;24.684;2023-05-23T05:46:32;98640.31;;;19.07;76.08
22753;BME280;11543;43.144;24.684;2023-05-23T05:48:58;98646.75;;;19.20;76.29
22753;BME280;11543;43.144;24.684;2023-05-23T05:51:24;98658.81;;;19.37;76.59
22753;BME280;11543;43.144;24.684;2023-05-23T05:53:50;98646.25;;;19.36;76.48
22753;BME280;11543;43.144;24.684;2023-05-23T05:56:15;98628.03;;;19.36;76.25
22753;BME280;11543;43.144;24.684;2023-05-23T05:58:41;98648.06;;;19.55;76.03
22753;BME280;11543;43.144;24.684;2023-05-23T06:01:06;98646.75;;;19.64;76.09
22753;BME280;11543;43.144;24.684;2023-05-23T06:03:33;98647.53;;;19.78;76.04
22753;BME280;11543;43.144;24.684;2023-05-23T06:05:59;98640.81;;;19.81;75.90
22753;BME280;11543;43.144;24.684;2023-05-23T06:08:25;98634.66;;;19.92;75.71
22753;BME280;11543;43.144;24.684;2023-05-23T06:10:50;98646.72;;;20.09;75.56
22753;BME280;11543;43.144;24.684;2023-05-23T06:13:16;98655.22;;;20.19;75.50
22753;BME280;11543;43.144;24.684;2023-05-23T06:15:42;98637.66;;;20.15;75.46
22753;BME280;11543;43.144;24.684;2023-05-23T06:18:07;98636.75;;;20.21;75.01
22753;BME280;11543;43.144;24.684;2023-05-23T06:20:33;98639.22;;;20.29;75.24
22753;BME280;11543;43.144;24.684;2023-05-23T06:22:58;98650.41;;;20.46;75.01
22753;BME280;11543;43.144;24.684;2023-05-23T06:25:24;98665.34;;;20.62;74.60
22753;BME280;11543;43.144;24.684;2023-05-23T06:27:50;98641.88;;;20.61;74.46
22753;BME280;11543;43.144;24.684;2023-05-23T06:30:15;98638.88;;;20.69;74.73
22753;BME280;11543;43.144;24.684;2023-05-23T06:32:41;98654.06;;;20.83;74.48
22753;BME280;11543;43.144;24.684;2023-05-23T06:35:07;98655.44;;;20.92;74.32
22753;BME280;11543;43.144;24.684;2023-05-23T06:37:32;98651.03;;;21.10;73.53
22753;BME280;11543;43.144;24.684;2023-05-23T06:39:58;98635.13;;;21.07;72.83
22753;BME280;11543;43.144;24.684;2023-05-23T06:42:24;98641.25;;;21.20;72.24
22753;BME280;11543;43.144;24.684;2023-05-23T06:44:49;98651.97;;;21.40;71.79
22753;BME280;11543;43.144;24.684;2023-05-23T06:47:15;98639.97;;;21.41;71.59
22753;BME280;11543;43.144;24.684;2023-05-23T06:49:40;98652.53;;;21.60;70.25
22753;BME280;11543;43.144;24.684;2023-05-23T06:52:07;98652.97;;;21.76;70.99
22753;BME280;11543;43.144;24.684;2023-05-23T06:54:32;98658.94;;;21.84;70.41
22753;BME280;11543;43.144;24.684;2023-05-23T06:56:58;98654.41;;;21.78;70.35
22753;BME280;11543;43.144;24.684;2023-05-23T06:59:23;98652.94;;;21.94;70.12
22753;BME280;11543;43.144;24.684;2023-05-23T07:01:49;98633.19;;;21.92;68.88
22753;BME280;11543;43.144;24.684;2023-05-23T07:04:14;98656.72;;;22.23;68.11
22753;BME280;11543;43.144;24.684;2023-05-23T07:06:40;98639.00;;;22.25;67.85
22753;BME280;11543;43.144;24.684;2023-05-23T07:09:05;98649.72;;;22.39;67.72
22753;BME280;11543;43.144;24.684;2023-05-23T07:11:31;98643.59;;;22.55;66.64
22753;BME280;11543;43.144;24.684;2023-05-23T07:13:58;98652.38;;;22.69;66.49
22753;BME280;11543;43.144;24.684;2023-05-23T07:16:23;98642.88;;;22.71;66.25
22753;BME280;11543;43.144;24.684;2023-05-23T07:18:49;98642.50;;;22.79;65.50
22753;BME280;11543;43.144;24.684;2023-05-23T07:21:15;98621.25;;;22.81;64.68
22753;BME280;11543;43.144;24.684;2023-05-23T07:23:40;98632.91;;;22.88;64.61
22753;BME280;11543;43.144;24.684;2023-05-23T07:26:05;98620.28;;;22.87;64.49
22753;BME280;11543;43.144;24.684;2023-05-23T07:28:34;98629.06;;;23.13;62.89
22753;BME280;11543;43.144;24.684;2023-05-23T07:30:59;98617.63;;;23.16;62.79
22753;BME280;11543;43.144;24.684;2023-05-23T07:33:25;98625.44;;;23.24;63.80
22753;BME280;11543;43.144;24.684;2023-05-23T07:35:50;98624.47;;;23.30;63.40
22753;BME280;11543;43.144;24.684;2023-05-23T07:38:16;98631.38;;;23.44;61.85
22753;BME280;11543;43.144;24.684;2023-05-23T07:40:41;98621.81;;;23.59;61.44
22753;BME280;11543;43.144;24.684;2023-05-23T07:43:07;98621.19;;;23.68;60.50
22753;BME280;11543;43.144;24.684;2023-05-23T07:45:32;98624.34;;;23.77;60.36
22753;BME280;11543;43.144;24.684;2023-05-23T07:47:57;98626.69;;;23.85;59.52
22753;BME280;11543;43.144;24.684;2023-05-23T07:50:23;98627.56;;;24.02;58.95
22753;BME280;11543;43.144;24.684;2023-05-23T07:52:52;98626.75;;;24.19;57.90
22753;BME280;11543;43.144;24.684;2023-05-23T07:55:17;98645.41;;;24.33;56.51
22753;BME280;11543;43.144;24.684;2023-05-23T07:57:43;98620.66;;;24.28;54.91
22753;BME280;11543;43.144;24.684;2023-05-23T08:00:09;98619.31;;;24.48;55.20
22753;BME280;11543;43.144;24.684;2023-05-23T08:02:36;98622.38;;;24.68;54.91
22753;BME280;11543;43.144;24.684;2023-05-23T08:05:01;98616.94;;;24.90;53.19
22753;BME280;11543;43.144;24.684;2023-05-23T08:07:28;98633.53;;;25.17;53.65
22753;BME280;11543;43.144;24.684;2023-05-23T08:09:53;98621.03;;;25.26;51.85
22753;BME280;11543;43.144;24.684;2023-05-23T08:12:19;98625.09;;;25.45;51.69
22753;BME280;11543;43.144;24.684;2023-05-23T08:14:44;98623.25;;;25.51;51.23
22753;BME280;11543;43.144;24.684;2023-05-23T08:17:11;98630.53;;;25.62;51.23
22753;BME280;11543;43.144;24.684;2023-05-23T08:19:37;98631.81;;;25.76;50.87
22753;BME280;11543;43.144;24.684;2023-05-23T08:22:03;98619.81;;;25.87;50.43
22753;BME280;11543;43.144;24.684;2023-05-23T08:24:29;98624.16;;;26.05;49.23
22753;BME280;11543;43.144;24.684;2023-05-23T08:26:55;98633.88;;;26.18;48.76
22753;BME280;11543;43.144;24.684;2023-05-23T08:29:20;98638.34;;;26.24;48.57
22753;BME280;11543;43.144;24.684;2023-05-23T08:31:46;98606.97;;;26.20;44.94
22753;BME280;11543;43.144;24.684;2023-05-23T08:34:11;98610.53;;;26.20;45.64
22753;BME280;11543;43.144;24.684;2023-05-23T08:36:38;98628.78;;;26.31;46.05
22753;BME280;11543;43.144;24.684;2023-05-23T08:39:04;98625.81;;;26.33;44.79
22753;BME280;11543;43.144;24.684;2023-05-23T08:41:31;98607.88;;;26.30;44.61
22753;BME280;11543;43.144;24.684;2023-05-23T08:43:57;98602.63;;;26.29;44.91
22753;BME280;11543;43.144;24.684;2023-05-23T08:46:22;98609.34;;;26.38;45.04
22753;BME280;11543;43.144;24.684;2023-05-23T08:48:53;98617.97;;;26.52;45.06
22753;BME280;11543;43.144;24.684;2023-05-23T08:51:25;98612.25;;;26.58;44.32
22753;BME280;11543;43.144;24.684;2023-05-23T08:53:50;98616.09;;;26.57;43.79
22753;BME280;11543;43.144;24.684;2023-05-23T08:56:18;98613.91;;;26.59;43.33
22753;BME280;11543;43.144;24.684;2023-05-23T08:58:45;98608.31;;;26.49;44.38
22753;BME280;11543;43.144;24.684;2023-05-23T09:01:12;98623.16;;;26.48;45.05
22753;BME280;11543;43.144;24.684;2023-05-23T09:03:39;98614.91;;;26.48;45.56
22753;BME280;11543;43.144;24.684;2023-05-23T09:06:07;98603.94;;;26.53;45.33
22753;BME280;11543;43.144;24.684;2023-05-23T09:08:33;98590.13;;;26.43;45.86
22753;BME280;11543;43.144;24.684;2023-05-23T09:11:03;98594.97;;;26.68;46.35
22753;BME280;11543;43.144;24.684;2023-05-23T09:16:07;98607.03;;;26.99;46.24
22753;BME280;11543;43.144;24.684;2023-05-23T09:18:41;98610.47;;;27.21;45.11
22753;BME280;11543;43.144;24.684;2023-05-23T09:21:09;98600.00;;;27.28;44.43
22753;BME280;11543;43.144;24.684;2023-05-23T09:23:36;98603.41;;;27.51;43.04
22753;BME280;11543;43.144;24.684;2023-05-23T09:26:04;98610.13;;;27.75;43.15
22753;BME280;11543;43.144;24.684;2023-05-23T09:28:32;98615.13;;;27.99;41.36
22753;BME280;11543;43.144;24.684;2023-05-23T09:31:02;98605.50;;;28.21;40.44
22753;BME280;11543;43.144;24.684;2023-05-23T09:35:59;98595.59;;;28.61;38.81
22753;BME280;11543;43.144;24.684;2023-05-23T09:38:25;98584.25;;;28.73;38.40
22753;BME280;11543;43.144;24.684;2023-05-23T09:40:53;98609.09;;;28.93;38.96
22753;BME280;11543;43.144;24.684;2023-05-23T09:43:20;98578.16;;;28.91;38.84
22753;BME280;11543;43.144;24.684;2023-05-23T09:45:46;98580.06;;;29.06;39.43
22753;BME280;11543;43.144;24.684;2023-05-23T09:48:12;98580.78;;;29.27;39.25
22753;BME280;11543;43.144;24.684;2023-05-23T09:50:40;98591.25;;;29.50;37.79
22753;BME280;11543;43.144;24.684;2023-05-23T09:53:06;98592.00;;;29.61;38.48
22753;BME280;11543;43.144;24.684;2023-05-23T09:55:31;98579.81;;;29.67;38.26
22753;BME280;11543;43.144;24.684;2023-05-23T09:57:58;98585.75;;;29.89;38.11
22753;BME280;11543;43.144;24.684;2023-05-23T10:00:24;98585.66;;;30.04;37.83
22753;BME280;11543;43.144;24.684;2023-05-23T10:02:54;98591.34;;;30.23;36.52
22753;BME280;11543;43.144;24.684;2023-05-23T10:07:54;98581.19;;;30.48;35.60
22753;BME280;11543;43.144;24.684;2023-05-23T10:10:22;98577.81;;;30.51;36.72
22753;BME280;11543;43.144;24.684;2023-05-23T10:12:50;98566.31;;;30.38;36.24
22753;BME280;11543;43.144;24.684;2023-05-23T10:15:20;98574.44;;;30.59;36.31
22753;BME280;11543;43.144;24.684;2023-05-23T10:18:08;98571.94;;;30.86;35.39
22753;BME280;11543;43.144;24.684;2023-05-23T10:20:38;98574.59;;;30.96;35.42
22753;BME280;11543;43.144;24.684;2023-05-23T10:23:06;98555.75;;;30.98;36.50
22753;BME280;11543;43.144;24.684;2023-05-23T10:25:32;98554.72;;;31.13;35.81
22753;BME280;11543;43.144;24.684;2023-05-23T10:28:01;98562.00;;;31.33;34.59
22753;BME280;11543;43.144;24.684;2023-05-23T10:30:27;98558.72;;;31.31;33.35
22753;BME280;11543;43.144;24.684;2023-05-23T10:32:56;98549.28;;;31.32;33.77
22753;BME280;11543;43.144;24.684;2023-05-23T10:38:18;98556.00;;;31.26;34.96
22753;BME280;11543;43.144;24.684;2023-05-23T10:47:02;98555.28;;;31.39;33.56
22753;BME280;11543;43.144;24.684;2023-05-23T10:49:45;98556.31;;;31.24;33.93
22753;BME280;11543;43.144;24.684;2023-05-23T10:52:17;98546.19;;;31.10;35.49
22753;BME280;11543;43.144;24.684;2023-05-23T10:54:51;98537.22;;;31.18;35.66
22753;BME280;11543;43.144;24.684;2023-05-23T10:57:19;98555.28;;;31.39;35.05
22753;BME280;11543;43.144;24.684;2023-05-23T10:59:45;98549.00;;;31.52;34.69
22753;BME280;11543;43.144;24.684;2023-05-23T11:02:15;98548.38;;;31.55;35.34
22753;BME280;11543;43.144;24.684;2023-05-23T11:04:41;98539.88;;;31.71;33.39
22753;BME280;11543;43.144;24.684;2023-05-23T11:07:29;98549.31;;;31.70;34.15
22753;BME280;11543;43.144;24.684;2023-05-23T11:10:13;98538.38;;;31.78;34.43
22753;BME280;11543;43.144;24.684;2023-05-23T11:12:43;98542.84;;;31.93;34.28
22753;BME280;11543;43.144;24.684;2023-05-23T11:15:18;98530.41;;;32.09;35.13
22753;BME280;11543;43.144;24.684;2023-05-23T11:17:55;98539.53;;;32.28;34.14
22753;BME280;11543;43.144;24.684;2023-05-23T11:20:29;98536.50;;;32.44;34.38
22753;BME280;11543;43.144;24.684;2023-05-23T11:22:59;98536.09;;;32.64;34.01
22753;BME280;11543;43.144;24.684;2023-05-23T11:25:44;98518.66;;;32.77;33.87
22753;BME280;11543;43.144;24.684;2023-05-23T11:28:11;98513.72;;;32.88;33.80
22753;BME280;11543;43.144;24.684;2023-05-23T11:30:37;98518.56;;;33.10;32.98
22753;BME280;11543;43.144;24.684;2023-05-23T11:33:11;98522.66;;;33.26;32.13
22753;BME280;11543;43.144;24.684;2023-05-23T11:35:41;98520.84;;;33.35;32.17
22753;BME280;11543;43.144;24.684;2023-05-23T11:38:08;98530.59;;;33.46;31.58
22753;BME280;11543;43.144;24.684;2023-05-23T11:40:36;98525.41;;;33.53;31.29
22753;BME280;11543;43.144;24.684;2023-05-23T11:43:04;98525.22;;;33.50;32.31
22753;BME280;11543;43.144;24.684;2023-05-23T11:45:31;98510.63;;;33.44;31.53
22753;BME280;11543;43.144;24.684;2023-05-23T11:47:57;98510.63;;;33.44;31.80
22753;BME280;11543;43.144;24.684;2023-05-23T11:50:23;98508.88;;;33.71;29.59
22753;BME280;11543;43.144;24.684;2023-05-23T11:52:49;98501.22;;;33.90;28.96
22753;BME280;11543;43.144;24.684;2023-05-23T11:55:21;98505.34;;;33.93;28.45
22753;BME280;11543;43.144;24.684;2023-05-23T11:57:48;98489.16;;;33.95;28.87
22753;BME280;11543;43.144;24.684;2023-05-23T12:00:14;98490.09;;;33.90;28.69
22753;BME280;11543;43.144;24.684;2023-05-23T12:02:41;98499.41;;;33.72;28.85
22753;BME280;11543;43.144;24.684;2023-05-23T12:05:13;98498.84;;;33.47;28.50
22753;BME280;11543;43.144;24.684;2023-05-23T12:07:47;98485.69;;;33.25;28.52
22753;BME280;11543;43.144;24.684;2023-05-23T12:10:16;98478.09;;;32.90;28.41
22753;BME280;11543;43.144;24.684;2023-05-23T12:12:43;98482.44;;;32.82;28.08
22753;BME280;11543;43.144;24.684;2023-05-23T12:15:10;98470.38;;;32.73;29.69
22753;BME280;11543;43.144;24.684;2023-05-23T12:17:37;98470.06;;;32.75;30.85
22753;BME280;11543;43.144;24.684;2023-05-23T12:20:04;98467.00;;;32.90;30.54
22753;BME280;11543;43.144;24.684;2023-05-23T12:22:30;98470.50;;;32.96;30.78
22753;BME280;11543;43.144;24.684;2023-05-23T12:24:56;98472.56;;;33.04;29.80
22753;BME280;11543;43.144;24.684;2023-05-23T12:27:29;98461.44;;;33.04;30.83
22753;BME280;11543;43.144;24.684;2023-05-23T12:30:05;98467.56;;;33.28;31.59
22753;BME280;11543;43.144;24.684;2023-05-23T12:32:32;98455.63;;;33.41;30.73
22753;BME280;11543;43.144;24.684;2023-05-23T12:34:57;98461.06;;;33.69;29.49
22753;BME280;11543;43.144;24.684;2023-05-23T12:37:24;98455.25;;;33.93;29.53
22753;BME280;11543;43.144;24.684;2023-05-23T12:39:50;98445.31;;;34.00;30.36
22753;BME280;11543;43.144;24.684;2023-05-23T12:42:15;98441.88;;;34.03;29.38
22753;BME280;11543;43.144;24.684;2023-05-23T12:44:42;98445.66;;;34.07;29.08
22753;BME280;11543;43.144;24.684;2023-05-23T12:47:08;98446.31;;;34.04;28.75
22753;BME280;11543;43.144;24.684;2023-05-23T12:49:37;98446.91;;;33.93;28.70
22753;BME280;11543;43.144;24.684;2023-05-23T12:52:02;98444.56;;;33.86;28.61
22753;BME280;11543;43.144;24.684;2023-05-23T12:54:28;98429.88;;;33.80;28.43
22753;BME280;11543;43.144;24.684;2023-05-23T12:56:54;98436.28;;;33.81;29.15
22753;BME280;11543;43.144;24.684;2023-05-23T12:59:19;98437.84;;;33.87;29.20
22753;BME280;11543;43.144;24.684;2023-05-23T13:01:45;98422.16;;;33.91;28.52
22753;BME280;11543;43.144;24.684;2023-05-23T13:04:13;98426.31;;;34.02;28.22
22753;BME280;11543;43.144;24.684;2023-05-23T13:06:39;98414.81;;;33.95;29.53
22753;BME280;11543;43.144;24.684;2023-05-23T13:09:04;98427.44;;;33.79;29.60
22753;BME280;11543;43.144;24.684;2023-05-23T13:11:30;98412.63;;;33.70;29.01
22753;BME280;11543;43.144;24.684;2023-05-23T13:13:55;98408.06;;;33.74;28.96
22753;BME280;11543;43.144;24.684;2023-05-23T13:16:21;98406.31;;;33.78;29.44
22753;BME280;11543;43.144;24.684;2023-05-23T13:18:48;98402.69;;;33.91;28.79
22753;BME280;11543;43.144;24.684;2023-05-23T13:21:13;98404.78;;;33.85;29.00
22753;BME280;11543;43.144;24.684;2023-05-23T13:23:39;98410.53;;;33.89;28.34